createdAt,value
2022-09-22T00:01:15.219Z,4.41
2022-09-22T00:03:44.833Z,4.31
2022-09-22T00:06:17.857Z,4.37
2022-09-22T00:08:47.261Z,4.41
2022-09-22T00:11:18.516Z,4.39
2022-09-22T00:13:48.555Z,4.35
2022-09-22T00:16:17.633Z,4.29
2022-09-22T00:18:45.406Z,4.30
2022-09-22T00:21:19.696Z,4.28
2022-09-22T00:23:48.175Z,4.23
2022-09-22T00:26:17.822Z,4.24
2022-09-22T00:28:47.169Z,4.27
2022-09-22T00:31:17.912Z,4.21
2022-09-22T00:33:46.274Z,4.15
2022-09-22T00:36:16.642Z,4.12
2022-09-22T00:38:44.953Z,4.07
2022-09-22T00:41:18.804Z,4.05
2022-09-22T00:43:49.023Z,3.99
2022-09-22T00:46:21.598Z,3.99
2022-09-22T00:48:53.917Z,3.97
2022-09-22T00:51:26.309Z,3.79
2022-09-22T00:53:55.612Z,3.92
2022-09-22T00:56:28.681Z,3.93
2022-09-22T00:59:02.014Z,3.87
2022-09-22T01:01:29.842Z,3.64
2022-09-22T01:03:57.803Z,3.80
2022-09-22T01:06:29.166Z,3.77
2022-09-22T01:08:57.969Z,3.74
2022-09-22T01:11:27.901Z,3.70
2022-09-22T01:14:05.258Z,3.80
2022-09-22T01:16:45.596Z,3.75
2022-09-22T01:19:41.274Z,3.71
2022-09-22T01:22:22.679Z,3.61
2022-09-22T01:25:13.773Z,3.59
2022-09-22T01:28:05.646Z,3.41
2022-09-22T01:30:40.901Z,3.49
2022-09-22T01:33:23.516Z,3.48
2022-09-22T01:36:04.329Z,3.30
2022-09-22T01:38:38.038Z,3.34
2022-09-22T01:41:09.610Z,3.28
2022-09-22T01:43:43.839Z,3.22
2022-09-22T01:46:20.434Z,3.23
2022-09-22T01:48:51.338Z,3.21
2022-09-22T01:51:22.829Z,3.19
2022-09-22T01:53:55.652Z,3.12
2022-09-22T01:56:26.135Z,3.18
2022-09-22T01:58:58.716Z,3.23
2022-09-22T02:01:33.193Z,2.99
2022-09-22T02:04:06.513Z,3.16
2022-09-22T02:06:40.919Z,3.17
2022-09-22T02:09:12.008Z,3.15
2022-09-22T02:11:39.698Z,3.20
2022-09-22T02:14:08.219Z,3.20
2022-09-22T02:16:37.688Z,3.15
2022-09-22T02:19:13.318Z,3.02
2022-09-22T02:21:42.570Z,3.00
2022-09-22T02:24:32.200Z,2.96
2022-09-22T02:27:04.155Z,3.00
2022-09-22T02:29:34.828Z,2.97
2022-09-22T02:32:07.776Z,3.00
2022-09-22T02:34:35.799Z,2.98
2022-09-22T02:37:10.002Z,2.95
2022-09-22T02:39:41.850Z,2.96
2022-09-22T02:42:26.996Z,2.96
2022-09-22T02:45:00.353Z,2.95
2022-09-22T02:47:33.791Z,2.99
2022-09-22T02:50:05.138Z,3.02
2022-09-22T02:52:32.835Z,2.94
2022-09-22T02:55:00.426Z,2.89
2022-09-22T02:57:28.070Z,2.90
2022-09-22T02:59:55.683Z,2.78
2022-09-22T03:02:23.627Z,2.86
2022-09-22T03:04:52.607Z,2.86
2022-09-22T03:07:20.284Z,2.76
2022-09-22T03:09:47.894Z,2.89
2022-09-22T03:12:15.476Z,2.92
2022-09-22T03:14:43.972Z,2.85
2022-09-22T03:17:11.603Z,2.82
2022-09-22T03:19:39.198Z,2.76
2022-09-22T03:22:08.145Z,2.74
2022-09-22T03:24:35.720Z,2.72
2022-09-22T03:27:03.289Z,2.74
2022-09-22T15:08:18.144Z,12.90
2022-09-22T15:10:53.693Z,13.02
2022-09-22T15:13:30.044Z,12.82
2022-09-22T15:15:58.557Z,12.63
2022-09-22T15:18:30.411Z,12.07
2022-09-22T15:21:00.798Z,12.96
2022-09-22T15:23:32.586Z,12.98
2022-09-22T15:26:04.001Z,13.05
2022-09-22T15:28:37.105Z,12.84
2022-09-22T15:31:09.124Z,13.02
2022-09-22T15:33:36.783Z,13.08
2022-09-22T15:36:12.734Z,13.02
2022-09-22T15:38:41.853Z,13.00
2022-09-22T15:41:12.102Z,12.76
2022-09-22T15:43:40.926Z,12.61
2022-09-22T15:46:26.578Z,12.56
2022-09-22T15:48:54.270Z,12.06
2022-09-22T15:51:22.095Z,12.64
2022-09-22T15:53:51.726Z,12.30
2022-09-22T15:56:23.842Z,11.94
2022-09-22T15:58:52.274Z,12.38
2022-09-22T16:01:20.641Z,12.36
2022-09-22T16:03:48.525Z,12.04
2022-09-22T16:06:17.856Z,12.46
2022-09-22T16:08:48.172Z,12.49
2022-09-22T16:11:27.111Z,12.20
2022-09-22T16:13:57.831Z,11.83
2022-09-22T16:16:26.805Z,12.58
2022-09-22T16:18:54.615Z,12.19
2022-09-22T16:21:26.026Z,12.29
2022-09-22T16:23:54.758Z,12.29
2022-09-22T16:26:24.778Z,11.87
2022-09-22T16:28:53.111Z,12.32
2022-09-22T16:31:21.692Z,12.19
2022-09-22T16:33:54.093Z,11.26
2022-09-22T16:36:22.122Z,11.59
2022-09-22T16:38:49.976Z,11.16
2022-09-22T16:41:24.599Z,11.96
2022-09-22T16:44:05.738Z,12.10
2022-09-22T16:46:37.304Z,11.64
2022-09-22T16:49:07.180Z,11.69
2022-09-22T16:51:37.262Z,11.73
2022-09-22T16:54:08.864Z,11.79
2022-09-22T16:56:38.850Z,11.60
2022-09-22T16:59:07.737Z,11.52
2022-09-22T17:01:37.841Z,11.44
2022-09-22T17:04:07.371Z,10.63
2022-09-22T17:06:37.657Z,10.61
2022-09-22T17:09:07.036Z,10.57
2022-09-22T17:11:37.372Z,10.88
2022-09-22T17:14:12.075Z,10.42
2022-09-22T17:16:42.392Z,10.46
2022-09-22T17:19:11.907Z,10.42
2022-09-22T17:21:40.591Z,10.26
2022-09-22T17:24:09.699Z,10.35
2022-09-22T17:26:44.715Z,10.05
2022-09-22T17:29:15.841Z,10.18
2022-09-22T17:31:45.214Z,10.06
2022-09-22T17:34:14.489Z,9.22
2022-09-22T17:36:42.336Z,9.75
2022-09-22T17:39:18.886Z,8.50
2022-09-22T17:41:46.991Z,8.54
2022-09-22T17:44:21.425Z,9.43
2022-09-22T17:47:15.834Z,8.98
2022-09-22T17:50:01.001Z,9.28
2022-09-22T17:52:46.188Z,8.96
2022-09-22T17:55:20.752Z,8.82
2022-09-22T17:57:53.540Z,8.28
2022-09-22T18:00:27.170Z,8.93
2022-09-22T18:03:03.956Z,8.68
2022-09-22T18:05:36.388Z,8.59
2022-09-22T18:08:07.637Z,8.68
2022-09-22T18:10:47.180Z,8.29
2022-09-22T18:13:20.073Z,8.53
2022-09-22T18:15:55.148Z,8.28
2022-09-22T18:18:25.250Z,8.22
2022-09-22T18:21:05.860Z,7.99
2022-09-22T18:23:36.256Z,7.95
2022-09-22T18:26:07.440Z,7.98
2022-09-22T18:28:37.959Z,8.10
2022-09-22T18:31:11.403Z,7.55
2022-09-22T18:33:44.035Z,7.59
2022-09-22T18:36:13.942Z,7.78
2022-09-22T18:38:47.456Z,7.10
2022-09-22T18:41:19.712Z,7.09
2022-09-22T18:43:50.293Z,7.64
2022-09-22T18:46:21.399Z,7.72
2022-09-22T18:48:57.887Z,7.67
2022-09-22T18:51:27.495Z,7.65
2022-09-22T18:53:56.999Z,6.82
2022-09-22T18:56:30.922Z,7.35
2022-09-22T18:58:59.953Z,7.38
2022-09-22T19:01:34.965Z,7.25
2022-09-22T19:04:34.189Z,7.43
2022-09-22T19:07:20.205Z,7.25
2022-09-22T19:09:50.632Z,7.14
2022-09-22T19:12:23.391Z,7.21
2022-09-22T19:14:54.790Z,7.06
2022-09-22T19:17:26.022Z,7.22
2022-09-22T19:19:55.849Z,7.21
2022-09-22T19:22:25.662Z,7.07
2022-09-22T19:24:54.963Z,6.91
2022-09-22T19:27:25.256Z,6.98
2022-09-22T19:29:54.587Z,6.64
2022-09-22T19:32:25.597Z,6.67
2022-09-22T19:34:55.409Z,6.75
2022-09-22T19:37:28.190Z,6.88
2022-09-22T19:39:56.987Z,6.84
2022-09-22T19:42:27.394Z,6.20
2022-09-22T19:44:56.704Z,6.46
2022-09-22T19:47:27.644Z,6.13
2022-09-22T19:49:58.208Z,6.74
2022-09-22T19:52:27.510Z,6.71
2022-09-22T19:54:57.286Z,6.68
2022-09-22T19:57:26.623Z,6.25
2022-09-22T19:59:56.704Z,6.33
2022-09-22T20:02:27.744Z,6.48
2022-09-22T20:04:57.557Z,6.29
2022-09-22T20:07:28.944Z,6.53
2022-09-22T20:09:58.245Z,5.95
2022-09-22T20:12:30.576Z,6.01
2022-09-22T20:15:00.021Z,6.34
2022-09-22T20:17:32.085Z,6.35
2022-09-22T20:20:02.411Z,6.33
2022-09-22T20:22:32.531Z,6.00
2022-09-22T20:25:05.517Z,6.26
2022-09-22T20:27:37.136Z,6.05
2022-09-22T20:30:08.829Z,5.89
2022-09-22T20:32:39.767Z,5.98
2022-09-22T20:36:03.239Z,6.10
2022-09-22T20:38:32.745Z,6.03
2022-09-22T20:41:03.741Z,5.68
2022-09-22T20:43:33.188Z,5.62
2022-09-22T20:46:04.164Z,5.79
2022-09-22T20:48:35.177Z,5.84
2022-09-22T20:51:07.030Z,5.72
2022-09-22T20:53:41.655Z,5.95
2022-09-22T20:56:15.001Z,5.55
2022-09-22T20:59:12.154Z,5.69
2022-09-22T21:02:14.890Z,5.73
2022-09-22T21:05:31.704Z,5.86
2022-09-22T21:08:14.778Z,5.86
2022-09-22T21:11:18.179Z,5.88
2022-09-22T21:13:55.056Z,5.92
2022-09-22T21:16:29.680Z,5.89
2022-09-22T21:19:08.051Z,5.82
2022-09-22T21:21:38.939Z,5.83
2022-09-22T21:24:11.562Z,5.86
2022-09-22T21:26:48.469Z,5.86
2022-09-22T21:29:19.934Z,5.69
2022-09-22T21:31:51.986Z,5.67
2022-09-22T21:34:33.279Z,5.77
2022-09-22T21:37:27.043Z,5.75
2022-09-22T21:39:59.043Z,5.86
2022-09-22T21:42:27.627Z,5.31
2022-09-22T21:44:55.356Z,5.69
2022-09-22T21:47:25.615Z,5.95
2022-09-22T21:49:53.373Z,5.21
2022-09-22T21:52:22.662Z,5.36
2022-09-22T21:54:51.310Z,4.78
2022-09-22T21:57:19.015Z,5.79
2022-09-22T21:59:46.731Z,5.98
2022-09-22T22:02:14.405Z,5.72
2022-09-22T22:04:42.268Z,5.29
2022-09-22T22:07:10.945Z,5.50
2022-09-22T22:09:39.968Z,5.12
2022-09-22T22:12:08.993Z,5.12
2022-09-22T22:14:36.668Z,5.11
2022-09-22T22:17:06.695Z,5.69
2022-09-22T22:19:34.494Z,5.33
2022-09-22T22:22:02.188Z,5.75
2022-09-22T22:24:35.242Z,5.38
2022-09-22T22:27:06.806Z,5.87
2022-09-22T22:29:36.352Z,5.82
2022-09-22T22:32:05.931Z,5.89
2022-09-22T22:34:34.466Z,5.30
2022-09-22T22:37:03.899Z,5.25
2022-09-22T22:39:32.554Z,5.70
2022-09-22T22:42:00.227Z,5.03
2022-09-22T22:44:29.286Z,5.74
2022-09-22T22:46:57.213Z,5.44
2022-09-22T22:49:26.128Z,4.81
2022-09-22T22:51:53.962Z,4.78
2022-09-22T22:54:21.662Z,4.51
2022-09-22T22:56:51.465Z,5.22
2022-09-22T22:59:19.986Z,4.79
2022-09-22T23:01:49.244Z,4.65
2022-09-22T23:04:17.544Z,4.53
2022-09-22T23:06:45.278Z,5.50
2022-09-22T23:09:14.922Z,5.52
2022-09-22T23:11:43.907Z,5.47
2022-09-22T23:14:13.241Z,5.40
2022-09-22T23:16:43.124Z,4.89
2022-09-22T23:19:14.755Z,5.36
2022-09-22T23:21:42.782Z,4.56
2022-09-22T23:24:16.225Z,5.04
2022-09-22T23:26:44.325Z,5.12
2022-09-22T23:29:12.081Z,4.86
2022-09-22T23:31:39.833Z,4.39
2022-09-22T23:34:07.524Z,4.43
2022-09-22T23:36:36.589Z,5.07
2022-09-22T23:39:05.145Z,5.08
2022-09-22T23:41:34.849Z,4.74
2022-09-22T23:44:03.481Z,4.63
2022-09-22T23:46:31.733Z,4.64
2022-09-22T23:48:59.978Z,4.86
2022-09-22T23:51:27.956Z,4.58
2022-09-22T23:53:58.707Z,4.55
2022-09-22T23:56:26.587Z,3.75
2022-09-22T23:58:54.517Z,4.20
